Time;durP1;ratioP1;P1;durP2;ratioP2;P2;SDS_P1;SDS_P2;PMS_P1;PMS_P2;Temp;Humidity;BMP_temperature;BMP_pressure;BME280_temperature;BME280_humidity;BME280_pressure;Samples;Min_cycle;Max_cycle;Signal;HPM_P1;HPM_P2
2022/08/13 00:00:32;;;;;;;11.05;5.97;;;20.10;84.20;;;;;;5094167;28;20048;-67
2022/08/13 00:02:59;;;;;;;5.18;4.20;;;20.00;84.70;;;;;;5095639;28;20058;-67
2022/08/13 00:05:26;;;;;;;5.93;3.42;;;20.00;84.00;;;;;;5095433;28;20148;-67
2022/08/13 00:07:52;;;;;;;6.00;3.17;;;20.00;84.90;;;;;;5095413;28;20039;-67
2022/08/13 00:10:24;;;;;;;6.93;3.42;;;20.00;84.10;;;;;;5093956;28;20044;-67
2022/08/13 00:13:03;;;;;;;6.78;3.33;;;19.90;84.20;;;;;;5095069;28;20486;-67
2022/08/13 00:15:31;;;;;;;5.15;3.30;;;19.90;84.60;;;;;;5095565;28;20380;-67
2022/08/13 00:17:59;;;;;;;3.40;3.10;;;19.80;84.40;;;;;;5095328;28;20047;-67
2022/08/13 00:20:30;;;;;;;8.40;3.15;;;19.80;85.10;;;;;;5094500;28;20059;-67
2022/08/13 00:22:58;;;;;;;5.35;3.00;;;19.70;84.60;;;;;;5095580;28;20032;-67
2022/08/13 00:25:24;;;;;;;3.85;2.90;;;19.70;85.00;;;;;;5095126;28;20118;-67
2022/08/13 00:27:56;;;;;;;3.70;2.97;;;19.70;85.70;;;;;;5095126;28;20051;-67
2022/08/13 00:30:24;;;;;;;5.90;3.00;;;19.60;85.90;;;;;;5095018;28;20115;-67
2022/08/13 00:32:51;;;;;;;5.65;3.40;;;19.50;86.30;;;;;;5093626;28;20044;-68
2022/08/13 00:35:18;;;;;;;3.55;2.80;;;19.50;86.90;;;;;;5094808;28;20051;-67
2022/08/13 00:37:44;;;;;;;15.55;3.70;;;19.50;86.80;;;;;;5094733;28;20517;-68
2022/08/13 00:40:10;;;;;;;6.35;3.00;;;19.60;90.90;;;;;;5095240;28;20055;-68
2022/08/13 00:42:40;;;;;;;3.40;2.90;;;19.50;93.20;;;;;;5093610;28;20056;-68
2022/08/13 00:45:07;;;;;;;3.20;2.90;;;19.40;94.10;;;;;;5094981;28;20051;-68
2022/08/13 00:50:17;;;;;;;5.90;3.00;;;19.40;96.00;;;;;;5094441;28;20052;-68
2022/08/13 00:52:44;;;;;;;7.60;2.95;;;19.50;97.70;;;;;;5094737;28;20043;-68
2022/08/13 00:55:15;;;;;;;3.97;3.20;;;;;;;;;;5094391;28;20124;-68
2022/08/13 00:57:41;;;;;;;3.15;2.85;;;;;;;;;;5094540;28;20047;-68
2022/08/13 01:00:12;;;;;;;2.95;2.60;;;;;;;;;;5094301;28;20036;-68
2022/08/13 01:02:41;;;;;;;6.15;3.13;;;;;;;;;;5094390;28;20048;-68
2022/08/13 01:05:08;;;;;;;6.88;2.95;;;;;;;;;;5092994;28;20052;-68
2022/08/13 01:07:36;;;;;;;5.47;2.60;;;19.00;86.30;;;;;;5092935;28;20044;-67
2022/08/13 01:10:04;;;;;;;3.08;2.88;;;19.00;87.20;;;;;;5094195;28;20040;-68
2022/08/13 01:12:29;;;;;;;;;;;18.90;87.20;;;;;;5094742;28;20044;-68
2022/08/13 01:14:57;;;;;;;4.03;2.90;;;18.80;87.90;;;;;;5075998;28;19949;-68
2022/08/13 01:17:23;;;;;;;2.90;2.50;;;;;;;;;;5092710;28;20531;-68
2022/08/13 01:19:50;;;;;;;6.93;2.95;;;18.60;87.70;;;;;;5094159;28;20048;-67
2022/08/13 01:22:16;;;;;;;4.32;3.00;;;;;;;;;;5094160;28;20036;-67
2022/08/13 01:24:42;;;;;;;4.07;2.70;;;18.50;89.20;;;;;;5094150;28;20047;-67
2022/08/13 01:27:09;;;;;;;4.57;2.60;;;18.40;90.00;;;;;;5094096;28;20056;-67
2022/08/13 01:29:39;;;;;;;6.53;2.72;;;18.40;90.00;;;;;;5093868;28;20044;-67
2022/08/13 01:32:05;;;;;;;5.93;2.70;;;18.30;90.00;;;;;;5092475;28;20548;-68
2022/08/13 01:34:32;;;;;;;3.22;2.70;;;18.30;90.50;;;;;;5093841;28;20410;-67
2022/08/13 01:36:59;;;;;;;7.40;2.97;;;18.20;90.00;;;;;;5094188;28;20047;-68
2022/08/13 01:39:26;;;;;;;4.13;2.80;;;18.20;90.30;;;;;;5093523;28;20044;-68
2022/08/13 01:41:53;;;;;;;4.05;2.65;;;18.10;90.50;;;;;;5093911;28;20091;-68
2022/08/13 01:44:20;;;;;;;4.82;2.60;;;18.10;90.80;;;;;;5092534;28;20085;-67
2022/08/13 01:52:16;;;;;;;3.35;2.47;;;18.00;90.90;;;;;;5093907;28;20055;-68
2022/08/13 01:54:42;;;;;;;4.35;2.63;;;17.90;91.30;;;;;;5092247;28;20102;-67
2022/08/13 01:57:09;;;;;;;2.92;2.60;;;17.90;91.60;;;;;;5092118;28;20507;-67
2022/08/13 01:59:36;;;;;;;4.43;2.57;;;17.80;91.90;;;;;;5092062;28;20082;-67
2022/08/13 02:02:03;;;;;;;;;;;17.70;91.80;;;;;;5094039;28;20392;-68
2022/08/13 02:04:29;;;;;;;3.22;2.50;;;17.70;91.90;;;;;;5093679;28;19920;-68
2022/08/13 02:06:59;;;;;;;3.90;2.83;;;17.70;92.20;;;;;;5093401;28;20040;-68
2022/08/13 02:09:25;;;;;;;3.83;2.65;;;17.70;92.10;;;;;;5093182;28;20040;-68
2022/08/13 02:11:50;;;;;;;3.65;2.70;;;17.60;92.30;;;;;;5093464;28;20043;-68
2022/08/13 02:14:16;;;;;;;4.97;2.50;;;17.50;92.60;;;;;;5093426;28;20463;-68
2022/08/13 02:16:42;;;;;;;3.25;2.30;;;17.60;92.50;;;;;;5093337;28;20498;-68
2022/08/13 02:19:08;;;;;;;2.55;2.35;;;17.60;92.80;;;;;;5093256;28;20089;-68
2022/08/13 02:21:36;;;;;;;3.75;2.80;;;17.50;92.80;;;;;;5093615;28;20498;-68
2022/08/13 02:24:03;;;;;;;5.72;2.80;;;17.60;92.70;;;;;;5093096;28;20036;-68
2022/08/13 02:26:32;;;;;;;4.20;2.45;;;17.50;92.70;;;;;;5093491;28;20437;-68
2022/08/13 02:29:00;;;;;;;4.43;2.67;;;17.40;92.90;;;;;;5093185;28;20118;-68
2022/08/13 02:31:28;;;;;;;5.03;2.78;;;17.40;93.00;;;;;;5093272;28;20032;-68
2022/08/13 02:33:55;;;;;;;5.63;2.85;;;17.50;93.80;;;;;;5093361;28;20051;-68
2022/08/13 02:36:22;;;;;;;3.90;2.50;;;17.50;94.60;;;;;;5091848;28;20094;-67
2022/08/13 02:38:54;;;;;;;;;;;17.50;94.90;;;;;;5093179;28;20040;-68
2022/08/13 02:41:39;;;;;;;3.83;2.65;;;17.50;99.90;;;;;;5093166;28;19920;-68
2022/08/13 02:44:10;;;;;;;5.55;2.63;;;;;;;;;;5093303;28;20152;-68
2022/08/13 02:46:37;;;;;;;3.25;2.40;;;17.20;92.90;;;;;;5074909;28;20071;-67
2022/08/13 02:49:03;;;;;;;3.08;2.53;;;17.20;93.60;;;;;;5092759;28;20101;-68
2022/08/13 02:51:30;;;;;;;4.03;2.95;;;17.10;93.80;;;;;;5093116;28;20043;-68
2022/08/13 02:53:59;;;;;;;3.45;2.80;;;17.30;96.00;;;;;;5093152;28;20052;-68
2022/08/13 02:56:26;;;;;;;3.28;2.50;;;17.20;98.70;;;;;;5093034;28;20079;-68
2022/08/13 02:58:52;;;;;;;3.57;2.73;;;17.20;99.90;;;;;;5092886;28;20502;-68
2022/08/13 03:01:18;;;;;;;5.78;2.60;;;17.10;99.90;;;;;;5093108;28;20296;-67
2022/08/13 03:03:44;;;;;;;5.10;2.67;;;17.10;99.90;;;;;;5092970;28;20040;-68
2022/08/13 03:06:10;;;;;;;3.85;2.42;;;17.10;99.90;;;;;;5093344;28;20093;-68
2022/08/13 03:08:36;;;;;;;3.58;2.30;;;17.10;99.90;;;;;;5092857;28;20047;-68
2022/08/13 03:11:01;;;;;;;3.88;2.63;;;16.80;95.00;;;;;;5096323;28;20119;-68
2022/08/13 03:13:32;;;;;;;4.72;2.70;;;16.80;95.00;;;;;;5096382;28;20052;-67
2022/08/13 03:16:00;;;;;;;4.80;2.80;;;16.90;95.10;;;;;;5096673;28;20093;-68
2022/08/13 03:18:26;;;;;;;5.38;2.63;;;16.90;95.40;;;;;;5096563;28;20097;-67
2022/08/13 03:20:52;;;;;;;4.32;2.80;;;16.80;96.00;;;;;;5095010;28;20059;-68
2022/08/13 03:23:18;;;;;;;2.80;2.60;;;16.80;96.70;;;;;;5096192;28;20380;-68
2022/08/13 03:25:45;;;;;;;5.03;2.58;;;16.80;97.70;;;;;;5096424;28;20475;-68
2022/08/13 03:28:10;;;;;;;3.55;3.00;;;16.70;97.60;;;;;;5094901;28;20044;-67
2022/08/13 03:30:36;;;;;;;2.72;2.50;;;16.70;98.20;;;;;;5096176;28;20062;-68
2022/08/13 03:33:07;;;;;;;4.07;2.67;;;16.60;98.30;;;;;;5096336;28;20419;-68
2022/08/13 03:35:35;;;;;;;3.22;2.58;;;16.60;98.70;;;;;;5095939;28;20433;-67
2022/08/13 03:38:03;;;;;;;3.08;2.45;;;16.60;98.60;;;;;;5096051;28;20123;-67
2022/08/13 03:41:03;;;;;;;2.90;2.70;;;16.50;98.70;;;;;;5095602;28;20499;-68
2022/08/13 03:43:21;;;;;;;5.63;2.80;;;16.50;98.60;;;;;;5093441;28;20056;-68
2022/08/13 03:45:47;;;;;;;2.63;2.42;;;16.40;98.80;;;;;;5096027;28;20051;-68
2022/08/13 03:48:14;;;;;;;4.50;2.35;;;16.40;98.90;;;;;;5095832;28;20498;-68
2022/08/13 03:50:44;;;;;;;3.53;3.23;;;16.40;99.00;;;;;;5095814;28;20506;-68
2022/08/13 03:53:10;;;;;;;5.72;3.00;;;16.40;99.40;;;;;;5095820;28;20048;-67
2022/08/13 03:55:39;;;;;;;3.78;2.75;;;16.50;99.10;;;;;;5095744;28;20036;-67
2022/08/13 03:58:06;;;;;;;8.98;3.28;;;16.50;99.60;;;;;;5095517;28;20495;-67
2022/08/13 04:00:36;;;;;;;5.53;3.03;;;16.50;98.80;;;;;;5095898;28;20093;-67
2022/08/13 04:03:14;;;;;;;3.22;2.72;;;16.50;99.00;;;;;;5095390;28;20555;-67
2022/08/13 04:05:40;;;;;;;5.60;3.17;;;16.60;98.60;;;;;;5095405;28;20490;-67
2022/08/13 04:08:06;;;;;;;6.90;2.88;;;16.50;98.90;;;;;;5095527;28;20044;-68
2022/08/13 04:10:33;;;;;;;3.28;2.60;;;16.50;98.80;;;;;;5095479;28;20036;-67
2022/08/13 04:12:59;;;;;;;4.25;2.90;;;16.50;98.70;;;;;;5093987;28;20119;-67
2022/08/13 04:15:24;;;;;;;5.15;3.00;;;16.50;99.00;;;;;;5077306;28;20127;-67
2022/08/13 04:17:50;;;;;;;3.03;2.80;;;16.50;99.10;;;;;;5095508;28;20101;-67
2022/08/13 04:20:16;;;;;;;4.68;3.03;;;16.60;98.80;;;;;;5095239;28;20040;-67
2022/08/13 04:22:42;;;;;;;5.93;2.75;;;16.60;98.70;;;;;;5094698;28;20048;-68
2022/08/13 04:25:09;;;;;;;4.07;2.88;;;16.60;98.60;;;;;;5094125;28;20070;-68
2022/08/13 04:27:35;;;;;;;4.60;2.70;;;16.60;98.80;;;;;;5095116;28;20116;-68
2022/08/13 04:30:02;;;;;;;3.95;2.83;;;16.60;98.80;;;;;;5094803;28;20040;-68
2022/08/13 04:32:28;;;;;;;4.88;2.97;;;16.60;98.80;;;;;;5094845;28;20511;-68
2022/08/13 04:34:54;;;;;;;3.78;2.78;;;16.60;98.80;;;;;;5094817;28;20043;-68
2022/08/13 04:37:22;;;;;;;3.42;2.90;;;16.70;98.60;;;;;;5094962;28;20181;-67
2022/08/13 04:39:52;;;;;;;3.90;3.00;;;16.70;99.30;;;;;;5094798;28;20145;-67
2022/08/13 04:42:18;;;;;;;4.57;2.70;;;16.70;99.60;;;;;;5095043;28;20048;-68
2022/08/13 04:44:44;;;;;;;3.65;2.60;;;16.70;99.50;;;;;;5094846;28;20051;-67
2022/08/13 04:47:09;;;;;;;4.00;2.60;;;16.70;99.50;;;;;;5094841;28;20123;-68
2022/08/13 04:49:35;;;;;;;3.22;2.88;;;16.80;99.20;;;;;;5094547;28;20036;-67
2022/08/13 04:52:01;;;;;;;3.97;3.00;;;;;;;;;;5094393;28;20048;-68
2022/08/13 04:54:28;;;;;;;8.90;3.13;;;;;;;;;;5094714;28;20105;-68
2022/08/13 04:56:54;;;;;;;5.63;3.00;;;17.30;98.30;;;;;;5094760;28;20073;-68
2022/08/13 04:59:22;;;;;;;4.25;2.60;;;17.40;98.10;;;;;;5094530;28;20054;-68
2022/08/13 05:01:48;;;;;;;5.75;2.70;;;17.40;98.00;;;;;;5094391;28;20505;-68
2022/08/13 05:04:15;;;;;;;3.55;2.60;;;17.50;97.90;;;;;;5094346;28;20036;-68
2022/08/13 05:06:42;;;;;;;4.10;2.60;;;17.90;97.50;;;;;;5094427;28;20096;-68
2022/08/13 05:09:08;;;;;;;2.88;2.67;;;17.90;97.00;;;;;;5094434;28;20058;-68
2022/08/13 05:11:34;;;;;;;3.72;2.55;;;17.90;96.90;;;;;;5094346;28;20409;-68
2022/08/13 05:13:59;;;;;;;3.28;2.70;;;18.00;96.80;;;;;;5092866;28;20074;-68
2022/08/13 05:16:25;;;;;;;2.63;2.42;;;18.00;96.80;;;;;;5094215;28;20032;-67
2022/08/13 05:18:53;;;;;;;3.65;2.85;;;17.90;96.90;;;;;;5094054;28;20628;-68
2022/08/13 05:21:22;;;;;;;3.60;2.60;;;18.00;96.60;;;;;;5092703;28;20172;-68
2022/08/13 05:23:53;;;;;;;2.95;2.75;;;18.10;96.60;;;;;;5094049;28;20040;-68
2022/08/13 05:26:23;;;;;;;2.83;2.60;;;18.20;96.50;;;;;;5094092;28;20059;-68
2022/08/13 05:28:49;;;;;;;3.53;2.50;;;18.20;96.40;;;;;;5093982;28;20376;-68
2022/08/13 05:31:17;;;;;;;5.78;2.80;;;18.30;96.40;;;;;;5094172;28;20044;-67
2022/08/13 05:33:42;;;;;;;5.78;2.90;;;18.40;96.20;;;;;;5092871;28;20084;-68
2022/08/13 05:36:09;;;;;;;3.20;2.90;;;19.20;96.20;;;;;;5094254;28;20072;-67
2022/08/13 05:38:35;;;;;;;3.13;2.80;;;20.40;95.10;;;;;;5093973;28;20058;-68
2022/08/13 05:41:04;;;;;;;3.58;2.50;;;21.50;94.10;;;;;;5093976;28;20056;-68
2022/08/13 05:43:36;;;;;;;6.88;2.65;;;22.60;93.10;;;;;;5092434;28;20486;-68
2022/08/13 05:46:05;;;;;;;3.08;2.47;;;23.50;90.60;;;;;;5093582;28;20467;-68
2022/08/13 05:48:34;;;;;;;4.25;2.35;;;24.20;88.60;;;;;;5093458;28;20554;-69
2022/08/13 05:51:04;;;;;;;4.30;2.63;;;24.90;86.80;;;;;;5093594;28;20040;-69
2022/08/13 05:53:35;;;;;;;3.17;2.30;;;25.30;82.50;;;;;;5093816;28;20430;-69
2022/08/13 05:56:03;;;;;;;5.40;2.28;;;25.90;84.10;;;;;;5093528;28;20055;-68
2022/08/13 05:58:29;;;;;;;3.65;2.22;;;26.40;90.00;;;;;;5093432;28;20051;-68
2022/08/13 06:03:40;;;;;;;4.07;2.08;;;;;;;;;;5093381;28;20055;-69
2022/08/13 06:06:10;;;;;;;2.83;2.35;;;27.30;77.00;;;;;;5093296;28;20453;-68
2022/08/13 06:08:39;;;;;;;2.22;2.03;;;27.30;76.30;;;;;;5093637;28;20044;-69
2022/08/13 06:11:15;;;;;;;7.68;2.50;;;27.70;74.50;;;;;;5093392;28;20115;-68
2022/08/13 06:13:42;;;;;;;4.30;2.22;;;27.50;74.40;;;;;;5092135;28;20043;-67
2022/08/13 06:16:10;;;;;;;3.57;2.30;;;27.60;73.70;;;;;;5093562;28;20047;-67
2022/08/13 06:18:38;;;;;;;4.38;2.40;;;27.60;73.20;;;;;;5093514;28;20278;-68
2022/08/13 06:21:06;;;;;;;3.90;1.90;;;27.90;72.90;;;;;;5091963;28;20055;-67
2022/08/13 06:23:35;;;;;;;2.00;1.90;;;27.60;71.00;;;;;;5093352;28;20036;-68
2022/08/13 06:26:02;;;;;;;2.85;2.15;;;28.30;72.50;;;;;;5093445;28;20081;-68
2022/08/13 06:28:29;;;;;;;3.65;1.98;;;28.30;70.10;;;;;;5093447;28;20048;-68
2022/08/13 06:31:00;;;;;;;8.43;2.40;;;28.60;70.60;;;;;;5091826;28;20044;-69
2022/08/13 06:33:28;;;;;;;3.63;2.00;;;28.60;68.90;;;;;;5093151;28;20495;-68
2022/08/13 06:35:57;;;;;;;3.28;2.00;;;28.70;69.20;;;;;;5093198;28;20522;-68
2022/08/13 06:38:28;;;;;;;3.97;1.98;;;28.70;69.80;;;;;;5093278;28;20111;-68
2022/08/13 06:40:59;;;;;;;3.05;2.08;;;28.70;69.80;;;;;;5092951;28;20048;-68
2022/08/13 06:43:27;;;;;;;7.07;1.90;;;28.80;69.10;;;;;;5093093;28;20085;-68
2022/08/13 06:45:54;;;;;;;3.90;1.92;;;29.00;68.40;;;;;;5096388;28;20039;-68
2022/08/13 06:48:19;;;;;;;;;;;29.00;68.80;;;;;;5097471;28;20071;-68
2022/08/13 06:50:45;;;;;;;1.90;1.63;;;29.10;68.50;;;;;;5096858;28;20373;-68
2022/08/13 06:53:11;;;;;;;4.47;1.90;;;29.20;67.00;;;;;;5097058;28;20040;-68
2022/08/13 06:55:39;;;;;;;4.10;1.90;;;29.40;69.10;;;;;;5096976;28;20040;-68
2022/08/13 06:58:09;;;;;;;2.83;1.88;;;29.60;68.00;;;;;;5096836;28;20047;-69
2022/08/13 07:00:38;;;;;;;4.30;1.92;;;29.30;67.00;;;;;;5097236;28;20044;-69
2022/08/13 07:03:05;;;;;;;6.15;1.80;;;29.80;68.20;;;;;;5095361;28;20127;-69
2022/08/13 07:05:33;;;;;;;3.60;1.80;;;29.60;67.00;;;;;;5096641;28;20165;-69
2022/08/13 07:08:02;;;;;;;3.38;1.70;;;29.80;66.50;;;;;;5095564;28;20527;-69
2022/08/13 07:10:28;;;;;;;2.45;1.65;;;29.70;66.30;;;;;;5096483;28;20127;-69
2022/08/13 07:12:56;;;;;;;4.65;1.95;;;29.70;65.30;;;;;;5096526;28;20466;-69
2022/08/13 07:15:23;;;;;;;6.47;1.90;;;29.40;66.70;;;;;;5078291;28;20040;-69
2022/08/13 07:17:50;;;;;;;2.20;1.60;;;30.00;66.60;;;;;;5096518;28;20052;-69
2022/08/13 07:20:16;;;;;;;3.17;1.60;;;30.00;66.30;;;;;;5095188;28;20532;-69
2022/08/13 07:22:42;;;;;;;2.80;1.70;;;30.00;65.90;;;;;;5078385;28;20120;-69
2022/08/13 07:25:10;;;;;;;4.40;1.70;;;30.00;65.40;;;;;;5096347;28;20040;-69
2022/08/13 07:27:41;;;;;;;2.33;1.60;;;30.00;65.40;;;;;;5095016;28;20055;-69
2022/08/13 07:30:07;;;;;;;7.60;1.55;;;29.90;65.00;;;;;;5096226;28;20040;-69
2022/08/13 07:32:39;;;;;;;3.70;1.77;;;29.20;65.80;;;;;;5095968;28;20036;-68
2022/08/13 07:35:08;;;;;;;3.92;1.63;;;28.70;66.20;;;;;;5096304;28;20061;-69
2022/08/13 07:37:35;;;;;;;6.43;1.77;;;28.60;67.30;;;;;;5096284;28;20036;-69
2022/08/13 07:40:01;;;;;;;;;;;27.90;68.20;;;;;;5096161;28;20052;-69
2022/08/13 07:42:28;;;;;;;3.45;1.55;;;27.50;68.50;;;;;;5096310;28;19920;-68
2022/08/13 07:44:54;;;;;;;2.58;1.48;;;27.10;69.50;;;;;;5095785;28;20037;-69
2022/08/13 07:47:21;;;;;;;3.55;1.55;;;26.70;70.80;;;;;;5094940;28;20052;-68
2022/08/13 07:49:47;;;;;;;;;;;26.60;71.00;;;;;;5096387;28;20079;-68
2022/08/13 07:52:14;;;;;;;2.10;1.80;;;26.60;71.00;;;;;;5094765;28;19920;-68
2022/08/13 07:54:43;;;;;;;2.53;1.77;;;26.60;72.00;;;;;;5094486;28;20115;-68
2022/08/13 07:57:09;;;;;;;6.85;1.50;;;26.50;72.40;;;;;;5095320;28;20040;-68
2022/08/13 07:59:36;;;;;;;10.50;1.73;;;26.60;72.80;;;;;;5095463;28;20122;-68
2022/08/13 08:02:05;;;;;;;2.33;1.50;;;26.70;73.20;;;;;;5095991;28;20409;-68
2022/08/13 08:04:37;;;;;;;3.25;1.50;;;26.60;73.00;;;;;;5095731;28;20048;-68
2022/08/13 08:07:03;;;;;;;3.55;1.60;;;26.80;72.60;;;;;;5095577;28;20395;-68
2022/08/13 08:09:29;;;;;;;4.27;1.70;;;26.90;72.20;;;;;;5094024;28;20121;-68
2022/08/13 08:14:44;;;;;;;3.28;1.50;;;27.10;73.00;;;;;;5095272;28;20483;-68
2022/08/13 08:17:11;;;;;;;2.15;1.20;;;27.20;72.80;;;;;;5095181;28;20483;-68
2022/08/13 08:19:41;;;;;;;3.38;1.58;;;27.40;71.40;;;;;;5095282;28;20046;-68
2022/08/13 08:22:08;;;;;;;2.58;1.48;;;27.40;71.30;;;;;;5093984;28;20085;-68
2022/08/13 08:24:35;;;;;;;4.82;1.40;;;27.50;70.50;;;;;;5094946;28;20084;-68
2022/08/13 08:27:10;;;;;;;2.63;1.30;;;27.50;70.20;;;;;;5095204;28;20047;-68
2022/08/13 08:29:37;;;;;;;2.42;1.25;;;27.70;70.90;;;;;;5093681;28;20044;-68
2022/08/13 08:32:05;;;;;;;6.90;1.50;;;28.00;71.20;;;;;;5095076;28;20058;-68
2022/08/13 08:34:31;;;;;;;4.90;1.40;;;27.80;70.20;;;;;;5094921;28;20044;-68
2022/08/13 08:36:57;;;;;;;3.60;1.27;;;28.00;70.60;;;;;;5093558;28;20115;-68
2022/08/13 08:42:35;;;;;;;5.55;1.42;;;28.20;70.80;;;;;;5093712;28;20047;-68
2022/08/13 08:45:01;;;;;;;1.92;1.45;;;28.40;68.60;;;;;;5094564;28;20052;-68
2022/08/13 08:47:30;;;;;;;3.08;1.40;;;28.40;69.90;;;;;;5094696;28;20523;-68
2022/08/13 08:49:58;;;;;;;2.30;1.40;;;28.40;68.90;;;;;;5094446;28;20062;-69
2022/08/13 08:55:12;;;;;;;5.57;1.30;;;28.50;69.60;;;;;;5094636;28;20414;-68
2022/08/13 08:57:39;;;;;;;3.88;1.40;;;28.50;69.10;;;;;;5094914;28;20044;-68
2022/08/13 09:00:06;;;;;;;;;;;28.80;70.10;;;;;;5095094;28;20048;-68
2022/08/13 09:02:33;;;;;;;3.30;1.48;;;29.00;69.80;;;;;;5094632;28;19920;-68
2022/08/13 09:05:02;;;;;;;;;;;29.20;69.40;;;;;;5095007;28;20119;-68
2022/08/13 09:07:29;;;;;;;5.22;1.50;;;29.30;69.20;;;;;;5094268;28;19972;-68
2022/08/13 09:09:57;;;;;;;3.00;1.10;;;29.40;68.50;;;;;;5093797;28;20055;-68
2022/08/13 09:12:28;;;;;;;3.45;1.30;;;29.50;68.90;;;;;;5092974;28;20044;-69
2022/08/13 09:14:56;;;;;;;1.98;1.20;;;29.40;65.70;;;;;;5094658;28;20174;-69
2022/08/13 09:17:21;;;;;;;5.38;1.65;;;29.40;66.40;;;;;;5093945;28;20560;-69
2022/08/13 09:19:47;;;;;;;3.67;1.15;;;29.40;65.30;;;;;;5094074;28;20121;-69
2022/08/13 09:22:17;;;;;;;1.20;1.10;;;29.60;66.00;;;;;;5093868;28;20483;-69
2022/08/13 09:24:46;;;;;;;2.58;1.20;;;29.80;65.20;;;;;;5094200;28;20044;-69
2022/08/13 09:27:16;;;;;;;3.70;1.20;;;29.50;63.80;;;;;;5094135;28;20040;-69
2022/08/13 09:29:43;;;;;;;1.90;1.30;;;29.50;64.50;;;;;;5092917;28;20043;-69
2022/08/13 09:32:09;;;;;;;3.10;1.20;;;29.60;64.30;;;;;;5092811;28;20552;-69
2022/08/13 09:34:39;;;;;;;3.58;1.20;;;29.80;64.50;;;;;;5093875;28;20043;-69
2022/08/13 09:37:07;;;;;;;3.40;1.23;;;29.90;63.90;;;;;;5093802;28;20044;-69
2022/08/13 09:39:38;;;;;;;2.25;1.15;;;30.00;64.10;;;;;;5093611;28;20086;-68
2022/08/13 09:42:13;;;;;;;2.65;1.25;;;30.00;61.90;;;;;;5093921;28;20036;-69
2022/08/13 09:44:41;;;;;;;1.98;1.27;;;30.00;62.00;;;;;;5093642;28;20384;-69
2022/08/13 09:47:10;;;;;;;2.97;1.20;;;30.10;61.20;;;;;;5093691;28;20032;-69
2022/08/13 09:49:37;;;;;;;3.33;1.20;;;30.20;61.90;;;;;;5092138;28;20048;-68
2022/08/13 09:52:03;;;;;;;1.40;1.17;;;30.10;61.50;;;;;;5093668;28;20044;-69
2022/08/13 09:54:29;;;;;;;4.80;1.35;;;30.20;61.70;;;;;;5093710;28;20043;-69
2022/08/13 09:56:58;;;;;;;3.60;1.33;;;30.30;62.60;;;;;;5093493;28;20195;-69
2022/08/13 09:59:24;;;;;;;2.97;1.20;;;30.50;62.00;;;;;;5093499;28;20127;-69
2022/08/13 10:01:50;;;;;;;2.38;1.13;;;30.20;60.30;;;;;;5092243;28;20075;-69
2022/08/13 10:04:19;;;;;;;1.90;1.17;;;30.20;62.00;;;;;;5093263;28;20043;-69
2022/08/13 10:06:45;;;;;;;1.50;1.00;;;30.10;60.60;;;;;;5093635;28;20051;-69
2022/08/13 10:09:12;;;;;;;2.47;1.30;;;30.20;60.70;;;;;;5093590;28;20089;-68
2022/08/13 10:11:38;;;;;;;2.97;1.30;;;30.00;59.40;;;;;;5093526;28;20440;-69
2022/08/13 10:14:04;;;;;;;1.60;1.27;;;30.30;60.10;;;;;;5093702;28;20066;-68
2022/08/13 10:16:30;;;;;;;2.28;1.10;;;30.40;60.50;;;;;;5093267;28;20769;-68
2022/08/13 10:18:55;;;;;;;1.38;1.10;;;30.20;60.30;;;;;;5093237;28;20044;-69
2022/08/13 10:21:21;;;;;;;2.47;1.20;;;30.40;60.80;;;;;;5097909;28;20040;-68
2022/08/13 10:23:47;;;;;;;2.47;1.20;;;30.50;59.80;;;;;;5096517;28;20052;-68
2022/08/13 10:26:17;;;;;;;2.10;1.30;;;30.50;60.70;;;;;;5097670;28;20475;-69
2022/08/13 10:28:43;;;;;;;2.28;1.20;;;30.60;61.20;;;;;;5097582;28;20493;-69
2022/08/13 10:31:09;;;;;;;2.65;1.13;;;30.70;60.70;;;;;;5097335;28;20105;-68
2022/08/13 10:33:35;;;;;;;2.78;1.00;;;30.70;60.20;;;;;;5097416;28;20066;-69
2022/08/13 10:36:01;;;;;;;1.83;1.33;;;30.80;60.50;;;;;;5097432;28;20093;-68
2022/08/13 10:38:26;;;;;;;1.85;1.15;;;30.70;60.30;;;;;;5097347;28;20044;-68
2022/08/13 10:40:57;;;;;;;1.20;1.10;;;30.60;58.70;;;;;;5096834;28;20410;-69
2022/08/13 10:43:23;;;;;;;3.17;1.20;;;30.60;59.50;;;;;;5097156;28;20040;-68
2022/08/13 10:45:59;;;;;;;4.05;1.20;;;30.70;59.30;;;;;;5096970;28;20450;-68
2022/08/13 10:48:26;;;;;;;3.75;1.40;;;30.80;58.70;;;;;;5097277;28;20044;-69
2022/08/13 10:50:53;;;;;;;2.25;1.20;;;30.80;59.50;;;;;;5097063;28;20051;-68
2022/08/13 10:56:04;;;;;;;1.75;1.30;;;30.90;58.70;;;;;;5096865;28;20044;-68
2022/08/13 10:58:31;;;;;;;2.50;1.27;;;31.20;59.20;;;;;;5096916;28;20403;-69
2022/08/13 11:00:59;;;;;;;2.97;1.25;;;31.10;57.70;;;;;;5097086;28;20044;-68
2022/08/13 11:03:24;;;;;;;1.98;1.20;;;31.10;57.70;;;;;;5096924;28;20115;-68
2022/08/13 11:05:50;;;;;;;1.02;0.93;;;31.40;58.80;;;;;;5096931;28;20111;-69
2022/08/13 11:08:15;;;;;;;2.13;1.20;;;31.40;57.20;;;;;;5096661;28;20040;-69
2022/08/13 11:10:41;;;;;;;1.45;1.33;;;31.60;58.80;;;;;;5096701;28;20051;-68
2022/08/13 11:13:07;;;;;;;2.25;1.20;;;31.20;55.50;;;;;;5096642;28;20040;-68
2022/08/13 11:15:33;;;;;;;3.08;1.20;;;31.10;55.30;;;;;;5095447;28;20040;-69
2022/08/13 11:17:59;;;;;;;3.35;1.27;;;31.10;56.50;;;;;;5095353;28;20048;-69
2022/08/13 11:20:27;;;;;;;1.23;1.15;;;30.80;57.10;;;;;;5096501;28;20047;-69
2022/08/13 11:22:54;;;;;;;3.92;1.40;;;30.90;57.00;;;;;;5096553;28;20065;-69
2022/08/13 11:25:21;;;;;;;1.55;1.10;;;30.90;56.60;;;;;;5096638;28;20055;-68
2022/08/13 11:27:48;;;;;;;1.45;1.33;;;31.20;56.40;;;;;;5096118;28;20032;-68
2022/08/13 11:30:14;;;;;;;1.23;1.13;;;31.00;55.90;;;;;;5095812;28;20483;-67
2022/08/13 11:32:40;;;;;;;3.65;1.33;;;30.50;55.50;;;;;;5095298;28;20036;-68
2022/08/13 11:35:07;;;;;;;1.13;1.05;;;30.70;56.80;;;;;;5096360;28;20085;-68
2022/08/13 11:37:34;;;;;;;2.95;1.23;;;30.60;56.70;;;;;;5096368;28;20047;-67
2022/08/13 11:40:03;;;;;;;;;;;30.50;56.10;;;;;;5096270;28;20056;-68
2022/08/13 11:42:29;;;;;;;2.55;1.38;;;30.40;56.50;;;;;;5095758;28;20018;-68
2022/08/13 11:44:54;;;;;;;1.27;1.17;;;30.80;57.20;;;;;;5096213;28;20161;-68
2022/08/13 11:47:20;;;;;;;1.23;1.13;;;31.00;55.60;;;;;;5095954;28;20123;-67
2022/08/13 11:49:46;;;;;;;1.20;1.10;;;31.00;56.30;;;;;;5095789;28;20036;-67
2022/08/13 11:52:11;;;;;;;1.80;1.40;;;31.40;56.30;;;;;;5095874;28;20121;-68
2022/08/13 11:54:37;;;;;;;1.42;1.30;;;31.60;57.00;;;;;;5095742;28;20086;-67
2022/08/13 11:57:04;;;;;;;1.85;1.10;;;31.80;56.70;;;;;;5094419;28;20059;-68
2022/08/13 11:59:30;;;;;;;2.88;1.10;;;31.90;56.30;;;;;;5095781;28;20044;-68
2022/08/13 12:01:56;;;;;;;2.33;1.40;;;31.90;57.20;;;;;;5095944;28;20127;-68
2022/08/13 12:04:21;;;;;;;1.90;1.30;;;31.90;55.60;;;;;;5095796;28;20073;-68
2022/08/13 12:06:47;;;;;;;1.77;1.25;;;31.50;54.40;;;;;;5095424;28;20043;-67
2022/08/13 12:09:12;;;;;;;3.30;1.73;;;31.50;54.10;;;;;;5095711;28;20043;-67
2022/08/13 12:11:38;;;;;;;1.20;1.10;;;31.80;55.50;;;;;;5095210;28;20147;-67
2022/08/13 12:14:04;;;;;;;1.80;1.33;;;31.60;53.90;;;;;;5095555;28;20048;-67
2022/08/13 12:16:29;;;;;;;2.15;1.20;;;31.60;54.90;;;;;;5095606;28;20482;-67
2022/08/13 12:18:55;;;;;;;1.27;1.23;;;31.60;55.10;;;;;;5095489;28;20040;-68
2022/08/13 12:21:21;;;;;;;3.22;1.45;;;31.70;54.70;;;;;;5095234;28;20043;-68
2022/08/13 12:23:46;;;;;;;1.58;1.30;;;31.80;55.90;;;;;;5095457;28;20043;-68
2022/08/13 12:26:12;;;;;;;1.45;1.35;;;31.60;55.50;;;;;;5094984;28;20072;-67
2022/08/13 12:28:37;;;;;;;3.97;1.33;;;31.40;54.70;;;;;;5095178;28;20522;-68
2022/08/13 12:31:05;;;;;;;1.97;1.27;;;31.10;55.00;;;;;;5095157;28;20088;-68
2022/08/13 12:33:32;;;;;;;5.95;1.40;;;31.20;55.30;;;;;;5093675;28;20071;-68
2022/08/13 12:36:01;;;;;;;3.17;1.30;;;31.10;55.60;;;;;;5095383;28;20108;-67
2022/08/13 12:38:27;;;;;;;1.70;1.38;;;31.30;55.10;;;;;;5094888;28;20497;-68
2022/08/13 12:40:53;;;;;;;2.33;1.40;;;31.30;55.30;;;;;;5094480;28;20414;-68
2022/08/13 12:43:19;;;;;;;4.10;1.40;;;31.60;56.50;;;;;;5094280;28;20047;-68
2022/08/13 12:45:44;;;;;;;2.10;1.60;;;31.30;55.00;;;;;;5095021;28;20040;-67
2022/08/13 12:48:15;;;;;;;1.63;1.50;;;31.10;55.40;;;;;;5094928;28;20055;-67
2022/08/13 12:50:42;;;;;;;3.70;1.52;;;30.90;54.90;;;;;;5094805;28;20051;-67
2022/08/13 12:53:09;;;;;;;2.15;1.35;;;31.30;55.30;;;;;;5094680;28;20048;-67
2022/08/13 12:55:36;;;;;;;2.10;1.45;;;31.50;54.30;;;;;;5094735;28;20039;-67
2022/08/13 12:58:14;;;;;;;3.10;1.65;;;31.80;55.20;;;;;;5094691;28;20128;-67
2022/08/13 13:00:40;;;;;;;1.92;1.55;;;31.90;55.20;;;;;;5094315;28;20044;-67
2022/08/13 13:03:06;;;;;;;1.80;1.40;;;32.10;55.10;;;;;;5094111;28;20028;-68
2022/08/13 13:05:32;;;;;;;1.90;1.30;;;32.10;54.30;;;;;;5094595;28;20390;-68
2022/08/13 13:07:57;;;;;;;1.90;1.80;;;32.20;54.20;;;;;;5094541;28;20050;-68
2022/08/13 13:10:23;;;;;;;3.00;1.83;;;32.10;54.70;;;;;;5094357;28;20075;-68
2022/08/13 13:12:49;;;;;;;5.40;1.55;;;32.20;54.40;;;;;;5094404;28;20449;-67
2022/08/13 13:15:14;;;;;;;1.83;1.70;;;32.30;54.80;;;;;;5094219;28;20055;-67